F/V Anna Mamm Mari — FOHD — position and weather

sailwx.info

Track history (hours):
 
Tides and Currents Weather Stations Pressure Air Temp Water Temp Dewpoint Dewpoint Depression Visibility Wind Speed Wind Dir Waves Ship Positions

F/V Anna Mamm Mari

Last reported at 2016-May-31 17:33 UTC. Time now 2016-May-31 18:05 UTC.
Position N 46°55' W 003°13'.

Length 17 m.

Type: Fishing. MMSI: 228393000.

Date/timePositionNaut miles runAvg speedWind from/ knotsBaromVisibWave heightAir tempDewpointWater temp
2016-May-31 17:33N 46°55' W 003°13'3 2.9
2016-May-31 16:30N 46°53' W 003°16'2 1.8
2016-May-31 15:27N 46°51' W 003°15'2 2.1
2016-May-31 14:27N 46°50' W 003°12'6 1.9
2016-May-31 11:06N 46°57' W 003°13'2 2.9
2016-May-31 10:30N 46°58' W 003°14'1 0.3
2016-May-31 07:30N 46°59' W 003°13'0 0.2
2016-May-31 06:15N 46°58' W 003°12'2 1.1
2016-May-31 04:28N 46°56' W 003°12'0 0.0
2016-May-30 21:09N 46°56' W 003°12'0 0.0
2016-May-30 19:24N 46°56' W 003°12'0 0.1
2016-May-30 18:30N 46°56' W 003°12'0 0.0
2016-May-30 17:33N 46°57' W 003°12'0 0.0
2016-May-30 16:33N 46°57' W 003°12'0 0.1
2016-May-30 15:33N 46°56' W 003°12'0 0.0
2016-May-30 14:33N 46°56' W 003°12'0 0.0
2016-May-30 13:31N 46°56' W 003°12'0 0.0
2016-May-30 12:27N 46°56' W 003°12'0 0.0
2016-May-30 11:18N 46°56' W 003°12'3 2.4
2016-May-30 10:12N 46°54' W 003°11'3 5.4
2016-May-30 09:33N 46°57' W 003°13'0 0.2
2016-May-30 07:06N 46°58' W 003°12'1 0.9
2016-May-30 06:33N 46°58' W 003°13'2 1.1
2016-May-30 04:30N 46°56' W 003°12'1 1.0
2016-May-30 03:33N 46°57' W 003°13'1 0.6
2016-May-30 02:27N 46°57' W 003°13'38 4.8
2016-May-29 18:28N 47°02' W 002°18'0 0.0
2016-May-29 17:33N 47°02' W 002°18'0 0.1
2016-May-29 16:24N 47°02' W 002°18'2 1.9
2016-May-29 15:33N 47°01' W 002°20'26 8.3
2016-May-29 12:27N 46°56' W 002°57'46 3.3
2016-May-28 22:32N 46°32' W 002°01'9 8.7
2016-May-28 21:33N 46°29' W 001°49'2 1.7
2016-May-28 20:33N 46°30' W 001°47'0 0.2
2016-May-28 19:33N 46°30' W 001°47'2 1.9
2016-May-28 18:33N 46°28' W 001°49'9 8.9
2016-May-28 17:32N 46°32' W 002°01'11 9.2
2016-May-28 16:22N 46°37' W 002°15'36 9.0
2016-May-28 12:18N 46°53' W 003°02'7 8.6
2016-May-28 11:33N 46°56' W 003°11'2 2.1
2016-May-28 10:33N 46°58' W 003°12'5 4.8
2016-May-28 09:33N 46°54' W 003°09'1 1.1
2016-May-28 08:33N 46°53' W 003°08'1 0.5
2016-May-28 07:27N 46°54' W 003°08'2 1.8
2016-May-28 06:30N 46°54' W 003°10'1 0.3
2016-May-28 03:28N 46°53' W 003°12'0 0.0
2016-May-28 02:33N 46°53' W 003°12'0 0.0
2016-May-28 01:33N 46°53' W 003°12'0 0.0
2016-May-28 00:31N 46°53' W 003°12'0 0.1
2016-May-27 23:33N 46°53' W 003°11'0 0.1
2016-May-27 22:33N 46°53' W 003°11'0 0.1
2016-May-27 21:33N 46°53' W 003°11'0 0.1
2016-May-27 20:33N 46°53' W 003°11'0 0.1
2016-May-27 19:33N 46°53' W 003°11'3 3.4
2016-May-27 18:33N 46°54' W 003°15'2 1.8
2016-May-27 17:33N 46°53' W 003°16'1 0.9
2016-May-27 16:15N 46°53' W 003°14'1 1.4
2016-May-27 15:33N 46°52' W 003°13'3 2.2
2016-May-27 14:18N 46°53' W 003°09'2 1.3
2016-May-27 13:03N 46°55' W 003°09'1 1.6
2016-May-27 12:33N 46°56' W 003°10'2 1.7
2016-May-27 11:30N 46°57' W 003°11'1 1.3
2016-May-27 10:33N 46°57' W 003°12'1 1.1
2016-May-27 09:33N 46°56' W 003°12'2 1.3
2016-May-27 08:06N 46°54' W 003°11'3 4.6
2016-May-27 07:32N 46°51' W 003°12'3 2.8
2016-May-27 06:33N 46°50' W 003°16'2 1.7
2016-May-27 05:16N 46°52' W 003°17'2 1.7
2016-May-27 04:15N 46°53' W 003°15'3 2.8
2016-May-27 03:18N 46°55' W 003°12'0 0.0
2016-May-27 02:33N 46°55' W 003°12'0 0.1
2016-May-27 01:29N 46°55' W 003°12'0 0.1
2016-May-27 00:33N 46°55' W 003°12'0 0.1
2016-May-26 23:30N 46°55' W 003°12'0 0.1
2016-May-26 20:27N 46°55' W 003°12'0 0.1
2016-May-26 19:27N 46°55' W 003°12'0 0.0
2016-May-26 13:27N 46°55' W 003°12'1 0.4
2016-May-26 09:33N 46°55' W 003°14'1 0.1
2016-May-26 00:21N 46°54' W 003°13'0 0.0
2016-May-25 19:09N 46°54' W 003°13'0 0.0
2016-May-25 18:21N 46°54' W 003°13'1 0.8
2016-May-25 17:27N 46°53' W 003°14'50 2.8
2016-May-24 23:24N 46°34' W 002°07'8 9.0
2016-May-24 22:33N 46°31' W 001°57'7 6.6
2016-May-24 21:33N 46°30' W 001°48'0 0.2
2016-May-24 20:33N 46°30' W 001°48'0 0.0
2016-May-24 19:33N 46°30' W 001°48'0 0.0
2016-May-24 18:33N 46°30' W 001°48'0 0.0
2016-May-24 17:33N 46°30' W 001°48'0 0.0
2016-May-24 16:33N 46°30' W 001°48'0 0.0
2016-May-24 15:33N 46°30' W 001°48'0 0.0
2016-May-24 14:33N 46°30' W 001°47'0 0.2
2016-May-24 13:33N 46°30' W 001°47'1 1.1
2016-May-24 12:33N 46°29' W 001°47'5 4.6
2016-May-24 11:33N 46°30' W 001°54'9 8.4
2016-May-24 10:31N 46°33' W 002°05'  
Track history (hours):
 
Tides and Currents Weather Stations Pressure Air Temp Water Temp Dewpoint Dewpoint Depression Visibility Wind Speed Wind Dir Waves Ship Positions

F/V Anna Mamm Mari

Last reported at 2016-May-31 17:33 UTC. Time now 2016-May-31 18:05 UTC.
Position N 46°55' W 003°13'.

Length 17 m.

Type: Fishing. MMSI: 228393000.

Date/timePositionNaut miles runAvg speedWind from/ knotsBaromVisibWave heightAir tempDewpointWater temp
2016-May-31 17:33N 46°55' W 003°13'3 2.9
2016-May-31 16:30N 46°53' W 003°16'2 1.8
2016-May-31 15:27N 46°51' W 003°15'2 2.1
2016-May-31 14:27N 46°50' W 003°12'6 1.9
2016-May-31 11:06N 46°57' W 003°13'2 2.9
2016-May-31 10:30N 46°58' W 003°14'1 0.3
2016-May-31 07:30N 46°59' W 003°13'0 0.2
2016-May-31 06:15N 46°58' W 003°12'2 1.1
2016-May-31 04:28N 46°56' W 003°12'0 0.0
2016-May-30 21:09N 46°56' W 003°12'0 0.0
2016-May-30 19:24N 46°56' W 003°12'0 0.1
2016-May-30 18:30N 46°56' W 003°12'0 0.0
2016-May-30 17:33N 46°57' W 003°12'0 0.0
2016-May-30 16:33N 46°57' W 003°12'0 0.1
2016-May-30 15:33N 46°56' W 003°12'0 0.0
2016-May-30 14:33N 46°56' W 003°12'0 0.0
2016-May-30 13:31N 46°56' W 003°12'0 0.0
2016-May-30 12:27N 46°56' W 003°12'0 0.0
2016-May-30 11:18N 46°56' W 003°12'3 2.4
2016-May-30 10:12N 46°54' W 003°11'3 5.4
2016-May-30 09:33N 46°57' W 003°13'0 0.2
2016-May-30 07:06N 46°58' W 003°12'1 0.9
2016-May-30 06:33N 46°58' W 003°13'2 1.1
2016-May-30 04:30N 46°56' W 003°12'1 1.0
2016-May-30 03:33N 46°57' W 003°13'1 0.6
2016-May-30 02:27N 46°57' W 003°13'38 4.8
2016-May-29 18:28N 47°02' W 002°18'0 0.0
2016-May-29 17:33N 47°02' W 002°18'0 0.1
2016-May-29 16:24N 47°02' W 002°18'2 1.9
2016-May-29 15:33N 47°01' W 002°20'26 8.3
2016-May-29 12:27N 46°56' W 002°57'46 3.3
2016-May-28 22:32N 46°32' W 002°01'9 8.7
2016-May-28 21:33N 46°29' W 001°49'2 1.7
2016-May-28 20:33N 46°30' W 001°47'0 0.2
2016-May-28 19:33N 46°30' W 001°47'2 1.9
2016-May-28 18:33N 46°28' W 001°49'9 8.9
2016-May-28 17:32N 46°32' W 002°01'11 9.2
2016-May-28 16:22N 46°37' W 002°15'36 9.0
2016-May-28 12:18N 46°53' W 003°02'7 8.6
2016-May-28 11:33N 46°56' W 003°11'2 2.1
2016-May-28 10:33N 46°58' W 003°12'5 4.8
2016-May-28 09:33N 46°54' W 003°09'1 1.1
2016-May-28 08:33N 46°53' W 003°08'1 0.5
2016-May-28 07:27N 46°54' W 003°08'2 1.8
2016-May-28 06:30N 46°54' W 003°10'1 0.3
2016-May-28 03:28N 46°53' W 003°12'0 0.0
2016-May-28 02:33N 46°53' W 003°12'0 0.0
2016-May-28 01:33N 46°53' W 003°12'0 0.0
2016-May-28 00:31N 46°53' W 003°12'0 0.1
2016-May-27 23:33N 46°53' W 003°11'0 0.1
2016-May-27 22:33N 46°53' W 003°11'0 0.1
2016-May-27 21:33N 46°53' W 003°11'0 0.1
2016-May-27 20:33N 46°53' W 003°11'0 0.1
2016-May-27 19:33N 46°53' W 003°11'3 3.4
2016-May-27 18:33N 46°54' W 003°15'2 1.8
2016-May-27 17:33N 46°53' W 003°16'1 0.9
2016-May-27 16:15N 46°53' W 003°14'1 1.4
2016-May-27 15:33N 46°52' W 003°13'3 2.2
2016-May-27 14:18N 46°53' W 003°09'2 1.3
2016-May-27 13:03N 46°55' W 003°09'1 1.6
2016-May-27 12:33N 46°56' W 003°10'2 1.7
2016-May-27 11:30N 46°57' W 003°11'1 1.3
2016-May-27 10:33N 46°57' W 003°12'1 1.1
2016-May-27 09:33N 46°56' W 003°12'2 1.3
2016-May-27 08:06N 46°54' W 003°11'3 4.6
2016-May-27 07:32N 46°51' W 003°12'3 2.8
2016-May-27 06:33N 46°50' W 003°16'2 1.7
2016-May-27 05:16N 46°52' W 003°17'2 1.7
2016-May-27 04:15N 46°53' W 003°15'3 2.8
2016-May-27 03:18N 46°55' W 003°12'0 0.0
2016-May-27 02:33N 46°55' W 003°12'0 0.1
2016-May-27 01:29N 46°55' W 003°12'0 0.1
2016-May-27 00:33N 46°55' W 003°12'0 0.1
2016-May-26 23:30N 46°55' W 003°12'0 0.1
2016-May-26 20:27N 46°55' W 003°12'0 0.1
2016-May-26 19:27N 46°55' W 003°12'0 0.0
2016-May-26 13:27N 46°55' W 003°12'1 0.4
2016-May-26 09:33N 46°55' W 003°14'1 0.1
2016-May-26 00:21N 46°54' W 003°13'0 0.0
2016-May-25 19:09N 46°54' W 003°13'0 0.0
2016-May-25 18:21N 46°54' W 003°13'1 0.8
2016-May-25 17:27N 46°53' W 003°14'50 2.8
2016-May-24 23:24N 46°34' W 002°07'8 9.0
2016-May-24 22:33N 46°31' W 001°57'7 6.6
2016-May-24 21:33N 46°30' W 001°48'0 0.2
2016-May-24 20:33N 46°30' W 001°48'0 0.0
2016-May-24 19:33N 46°30' W 001°48'0 0.0
2016-May-24 18:33N 46°30' W 001°48'0 0.0
2016-May-24 17:33N 46°30' W 001°48'0 0.0
2016-May-24 16:33N 46°30' W 001°48'0 0.0
2016-May-24 15:33N 46°30' W 001°48'0 0.0
2016-May-24 14:33N 46°30' W 001°47'0 0.2
2016-May-24 13:33N 46°30' W 001°47'1 1.1
2016-May-24 12:33N 46°29' W 001°47'5 4.6
2016-May-24 11:33N 46°30' W 001°54'9 8.4
2016-May-24 10:31N 46°33' W 002°05'  

Dump ship's entire track history